Etusivu
METAR-TAF:

METAR-TAF

Lentoasemat :

Gran Canarian lentoasema

Gran Canaria, Espanja

Leveyspiiri: 27-56N, Pituuspiiri: 015-23W, korkeus merenpinnasta: 23 m

Tämänhetkinen sää

Tämä raportti tehtiin 39 minuuttia sitten, kello 19.00 UTC
Tuuli 11 kn pohjoisesta
Lämpötila 18°C
Kosteus 64%
Ilmanpaine 1025 hPa
Näkyvyys 10 km tai enemmän
Muutamia pilviä 3000 ft:n korkeudessa

METAR: GCLP 171900Z 01011KT 9999 FEW030 18/11 Q1025 NOSIG

Aika: 19:39 (19:39 UTC)

Sääennuste

Tämä raportti tehtiin 5 tuntia ja 39 minuuttia sitten, kello 14.00 UTC
Ennuste voimassa 17. päivästä klo 15 UTC - 18. päivään klo 15 UTC
Tuuli 9 kn koillisesta
Näkyvyys 10 km tai enemmän
Hajanaisia pilviä 3000 ft:n korkeudessa
Ajoittain
17. päivästä klo 18 UTC - 18. päivään klo 08 UTC
Tuuli 10 kn pohjoisesta

TAF: GCLP 171400Z 1715/1815 05009KT 9999 SCT030 TX22/1814Z TN15/1807Z TEMPO 1718/1808 35010KT

Säähavainnot ja -ennusteet yli 4000 lentoasemalta (METAR- ja TAF-raportit).

Käytössä olevat sääasemat on merkitty karttaan keltaisilla ja punaisilla pisteillä.

Aseta hiiri pisteen päälle nähdäksesi sääaseman nimen.

Klikkaa sitten nähdäksesi säähavainnot ja -ennusteet.

Kartan vaihtaminen: klikkaa mustalla rastilla varustettuja vihreitä pisteitä, niin voit zoomata sisään; viivalla varustettua vihreää pistettä, niin voit zoomata ulos tai vihreitä nuolia, niin pääset viereisille kartoille.


METAR-TAF: